createdAt,value
2023-05-11T00:01:11.309Z,7.60
2023-05-11T00:03:39.588Z,8.40
2023-05-11T00:06:07.796Z,8.50
2023-05-11T00:08:35.925Z,7.30
2023-05-11T00:11:08.004Z,7.40
2023-05-11T00:13:36.292Z,9.50
2023-05-11T00:16:04.926Z,9.70
2023-05-11T00:18:33.037Z,11.30
2023-05-11T00:21:01.169Z,8.70
2023-05-11T00:23:29.257Z,10.10
2023-05-11T00:25:57.555Z,9.80
2023-05-11T00:28:25.721Z,8.10
2023-05-11T00:30:57.803Z,11.80
2023-05-11T00:33:26.272Z,7.90
2023-05-11T00:35:54.331Z,9.70
2023-05-11T00:38:22.397Z,9.00
2023-05-11T00:40:51.084Z,15.30
2023-05-11T00:43:19.161Z,8.70
2023-05-11T00:45:48.305Z,7.90
2023-05-11T00:48:16.468Z,10.00
2023-05-11T00:50:44.956Z,10.60
2023-05-11T00:53:13.571Z,7.30
2023-05-11T00:55:42.223Z,8.20
2023-05-11T00:58:10.229Z,7.40
2023-05-11T01:00:38.540Z,8.90
2023-05-11T01:03:07.525Z,9.00
2023-05-11T01:05:48.604Z,7.90
2023-05-11T01:08:22.391Z,9.40
2023-05-11T01:11:18.291Z,9.60
2023-05-11T01:13:51.957Z,10.00
2023-05-11T01:16:24.638Z,7.90
2023-05-11T01:18:58.429Z,8.20
2023-05-11T01:21:31.737Z,8.40
2023-05-11T01:24:18.258Z,12.60
2023-05-11T01:27:17.199Z,9.70
2023-05-11T01:30:09.958Z,7.30
2023-05-11T01:32:41.784Z,11.60
2023-05-11T01:35:19.236Z,8.20
2023-05-11T01:37:50.515Z,7.80
2023-05-11T01:40:23.950Z,7.70
2023-05-11T01:43:00.414Z,8.00
2023-05-11T01:45:31.800Z,7.60
2023-05-11T01:48:07.545Z,8.20
2023-05-11T01:50:37.939Z,7.10
2023-05-11T01:53:07.640Z,9.20
2023-05-11T01:55:37.416Z,9.50
2023-05-11T01:58:06.756Z,9.00
2023-05-11T02:00:36.122Z,9.50
2023-05-11T02:03:06.340Z,12.10
2023-05-11T02:05:35.282Z,8.50
2023-05-11T02:08:06.038Z,9.30
2023-05-11T02:10:35.217Z,7.30
2023-05-11T02:13:05.436Z,10.20
2023-05-11T02:15:36.245Z,10.70
2023-05-11T02:20:34.840Z,8.20
2023-05-11T02:23:03.549Z,8.70
2023-05-11T02:25:32.100Z,9.00
2023-05-11T02:28:00.309Z,10.90
2023-05-11T02:30:31.587Z,8.50
2023-05-11T02:33:05.976Z,9.60
2023-05-11T02:35:39.666Z,11.40
2023-05-11T02:38:09.746Z,10.20
2023-05-11T02:40:47.374Z,10.50
2023-05-11T02:43:22.103Z,21.50
2023-05-11T02:45:54.015Z,11.40
2023-05-11T02:48:26.807Z,10.00
2023-05-11T02:50:57.108Z,11.70
2023-05-11T02:53:33.318Z,12.60
2023-05-11T02:56:02.244Z,10.30
2023-05-11T02:58:30.530Z,8.90
2023-05-11T03:01:00.190Z,8.10
2023-05-11T03:03:28.537Z,8.80
2023-05-11T03:05:56.713Z,9.60
2023-05-11T03:08:25.064Z,9.10
2023-05-11T03:10:53.554Z,10.70
2023-05-11T03:13:23.466Z,8.20
2023-05-11T03:15:53.181Z,9.30
2023-05-11T03:18:22.915Z,10.90
2023-05-11T03:20:51.457Z,11.40
2023-05-11T03:23:19.838Z,10.90
2023-05-11T03:25:48.330Z,9.20
2023-05-11T03:28:17.760Z,9.90
2023-05-11T03:30:46.794Z,11.00
2023-05-11T03:33:14.972Z,9.90
2023-05-11T03:35:46.039Z,8.70
2023-05-11T03:38:16.081Z,11.10
2023-05-11T03:40:46.109Z,10.10
2023-05-11T03:43:18.203Z,11.80
2023-05-11T03:45:48.258Z,12.30
2023-05-11T03:48:17.951Z,8.90
2023-05-11T03:50:47.229Z,7.50
2023-05-11T03:53:16.557Z,13.90
2023-05-11T03:55:44.695Z,9.00
2023-05-11T03:58:12.787Z,8.10
2023-05-11T04:00:42.249Z,7.60
2023-05-11T04:03:10.628Z,8.80
2023-05-11T04:05:38.796Z,9.20
2023-05-11T04:08:07.379Z,11.30
2023-05-11T04:10:35.559Z,9.50
2023-05-11T04:13:04.132Z,14.60
2023-05-11T04:15:32.258Z,11.00
2023-05-11T04:18:00.417Z,9.80
2023-05-11T04:20:28.550Z,9.30
2023-05-11T04:22:56.633Z,8.70
2023-05-11T04:25:24.760Z,8.50
2023-05-11T04:27:52.763Z,10.20
2023-05-11T04:30:24.881Z,9.60
2023-05-11T04:32:52.954Z,8.70
2023-05-11T04:35:22.117Z,8.80
2023-05-11T04:37:50.393Z,13.10
2023-05-11T04:40:18.647Z,9.70
2023-05-11T04:42:46.819Z,10.70
2023-05-11T04:45:14.974Z,11.40
2023-05-11T04:47:43.206Z,12.50
2023-05-11T04:50:11.352Z,11.30
2023-05-11T04:52:39.378Z,9.70
2023-05-11T04:55:07.785Z,16.40
2023-05-11T04:57:35.944Z,11.20
2023-05-11T05:00:05.496Z,15.70
2023-05-11T05:02:33.557Z,9.00
2023-05-11T05:05:01.654Z,15.00
2023-05-11T05:07:29.724Z,18.90
2023-05-11T05:09:57.799Z,15.00
2023-05-11T05:12:26.147Z,13.40
2023-05-11T05:14:54.233Z,19.40
2023-05-11T05:17:22.364Z,12.30
2023-05-11T05:19:50.402Z,13.20
2023-05-11T05:22:18.552Z,14.20
2023-05-11T05:24:46.700Z,13.60
2023-05-11T05:27:14.770Z,9.60
2023-05-11T05:29:42.808Z,12.90
2023-05-11T05:32:10.959Z,10.70
2023-05-11T05:34:39.181Z,11.50
2023-05-11T05:37:07.263Z,11.70
2023-05-11T05:39:35.518Z,10.80
2023-05-11T05:42:03.588Z,8.00
2023-05-11T05:44:31.873Z,8.50
2023-05-11T05:46:59.918Z,10.30
2023-05-11T05:49:28.122Z,10.40
2023-05-11T05:51:56.303Z,10.20
2023-05-11T05:54:24.436Z,8.20
2023-05-11T05:56:52.534Z,10.70
2023-05-11T05:59:23.587Z,7.40
2023-05-11T06:01:51.834Z,8.90
2023-05-11T06:04:20.037Z,9.30
2023-05-11T06:06:48.271Z,7.70
2023-05-11T06:09:16.795Z,6.90
2023-05-11T06:11:44.845Z,7.80
2023-05-11T06:14:12.993Z,6.60
2023-05-11T06:16:41.210Z,6.70
2023-05-11T06:19:09.458Z,6.40
2023-05-11T06:21:37.537Z,5.50
2023-05-11T06:24:05.785Z,6.70
2023-05-11T06:26:33.884Z,6.60
2023-05-11T06:29:01.971Z,5.50
2023-05-11T06:31:30.342Z,10.20
2023-05-11T06:33:58.474Z,8.10
2023-05-11T06:36:26.637Z,6.00
2023-05-11T06:38:54.856Z,6.10
2023-05-11T06:41:23.100Z,5.70
2023-05-11T06:43:51.274Z,7.60
2023-05-11T06:46:19.462Z,5.40
2023-05-11T06:48:47.712Z,6.80
2023-05-11T06:51:15.840Z,5.90
2023-05-11T06:53:44.053Z,5.80
2023-05-11T06:56:12.119Z,5.30
2023-05-11T06:58:40.205Z,5.00
2023-05-11T07:01:08.411Z,5.90
2023-05-11T07:03:36.637Z,5.60
2023-05-11T07:06:04.976Z,6.30
2023-05-11T07:08:33.929Z,7.50
2023-05-11T07:11:02.020Z,4.50
2023-05-11T07:13:30.098Z,6.60
2023-05-11T07:15:58.167Z,5.80
2023-05-11T07:18:26.261Z,5.90
2023-05-11T07:20:54.288Z,6.10
2023-05-11T07:23:22.684Z,4.10
2023-05-11T07:25:51.894Z,6.40
2023-05-11T07:28:19.991Z,4.60
2023-05-11T07:30:48.058Z,4.70
2023-05-11T07:33:16.660Z,5.90
2023-05-11T07:35:44.817Z,4.50
2023-05-11T07:38:13.959Z,7.60
2023-05-11T07:40:42.092Z,8.20
2023-05-11T07:43:10.175Z,5.80
2023-05-11T07:45:39.649Z,5.50
2023-05-11T07:48:07.965Z,5.50
2023-05-11T07:50:36.106Z,7.10
2023-05-11T07:53:04.267Z,5.20
2023-05-11T07:55:32.452Z,8.90
2023-05-11T07:58:00.547Z,8.80
2023-05-11T08:00:28.803Z,6.20
2023-05-11T08:02:57.076Z,4.50
2023-05-11T08:05:25.305Z,8.60
2023-05-11T08:07:53.725Z,9.30
2023-05-11T08:10:21.852Z,4.50
2023-05-11T08:12:50.145Z,6.90
2023-05-11T08:15:18.397Z,4.40
2023-05-11T08:17:46.926Z,5.20
2023-05-11T08:20:15.292Z,5.20
2023-05-11T08:22:44.733Z,7.50
2023-05-11T08:25:13.895Z,8.70
2023-05-11T08:27:41.905Z,4.90
2023-05-11T08:30:11.868Z,6.80
2023-05-11T08:35:11.631Z,7.30
2023-05-11T08:37:39.757Z,5.40
2023-05-11T08:40:10.474Z,7.50
2023-05-11T08:42:41.228Z,8.20
2023-05-11T08:45:10.831Z,8.90
2023-05-11T08:47:38.932Z,3.90
2023-05-11T08:50:07.895Z,4.10
2023-05-11T08:52:36.017Z,4.60
2023-05-11T08:55:04.336Z,4.10
2023-05-11T08:57:34.486Z,5.30
2023-05-11T09:00:03.327Z,4.20
2023-05-11T09:02:32.310Z,3.50
2023-05-11T09:05:04.273Z,6.00
2023-05-11T09:07:36.660Z,7.30
2023-05-11T09:10:05.091Z,3.90
2023-05-11T09:12:33.161Z,2.50
2023-05-11T09:15:17.420Z,3.50
2023-05-11T09:17:45.715Z,5.10
2023-05-11T09:20:13.795Z,3.50
2023-05-11T09:22:46.917Z,3.50
2023-05-11T09:25:17.786Z,4.30
2023-05-11T09:27:47.377Z,3.00
2023-05-11T09:30:23.453Z,4.70
2023-05-11T09:32:52.961Z,3.70
2023-05-11T09:35:32.586Z,2.60
2023-05-11T09:38:05.229Z,2.80
2023-05-11T09:40:37.055Z,3.70
2023-05-11T09:43:24.887Z,3.50
2023-05-11T09:45:55.685Z,2.50
2023-05-11T09:48:29.249Z,4.00
2023-05-11T09:51:04.262Z,5.70
2023-05-11T09:53:36.352Z,3.60
2023-05-11T09:56:04.691Z,4.10
2023-05-11T09:58:57.609Z,2.20
2023-05-11T10:01:30.972Z,4.20
2023-05-11T10:04:17.913Z,3.20
2023-05-11T10:06:53.518Z,2.30
2023-05-11T10:09:25.821Z,3.00
2023-05-11T10:11:55.629Z,2.20
2023-05-11T10:14:26.183Z,5.20
2023-05-11T10:19:23.191Z,4.30
2023-05-11T10:21:52.710Z,4.40
2023-05-11T10:24:21.144Z,3.80
2023-05-11T10:26:50.145Z,3.40
2023-05-11T10:29:20.439Z,3.10
2023-05-11T10:31:51.302Z,2.80
2023-05-11T10:34:20.216Z,3.30
2023-05-11T10:36:48.565Z,2.90
2023-05-11T10:39:16.680Z,3.00
2023-05-11T10:42:06.127Z,3.00
2023-05-11T10:44:49.138Z,2.90
2023-05-11T10:48:09.027Z,4.30
2023-05-11T10:51:02.216Z,4.80
2023-05-11T10:54:07.974Z,3.50
2023-05-11T10:56:57.523Z,3.70
2023-05-11T10:59:42.311Z,4.00
2023-05-11T11:02:11.042Z,3.00
2023-05-11T11:04:47.101Z,4.70
2023-05-11T11:07:20.004Z,3.50
2023-05-11T11:09:56.420Z,4.10
2023-05-11T11:12:27.484Z,6.40
2023-05-11T11:15:07.110Z,2.60
2023-05-11T11:17:36.204Z,3.50
2023-05-11T11:20:07.602Z,3.80
2023-05-11T11:22:36.062Z,2.10
2023-05-11T11:25:06.055Z,3.70
2023-05-11T11:27:40.088Z,6.50
2023-05-11T11:30:30.813Z,8.70
2023-05-11T11:33:08.270Z,2.30
2023-05-11T11:35:42.685Z,4.30
2023-05-11T11:38:29.821Z,2.80
2023-05-11T11:40:58.020Z,2.70
2023-05-11T11:43:28.511Z,2.80
2023-05-11T11:45:56.556Z,4.30
2023-05-11T11:48:35.884Z,3.90
2023-05-11T11:51:09.190Z,5.00
2023-05-11T11:53:41.075Z,2.70
2023-05-11T11:56:29.089Z,3.90
2023-05-11T11:59:01.342Z,3.30
2023-05-11T12:01:35.790Z,3.00
2023-05-11T12:04:32.010Z,4.00
2023-05-11T12:07:03.638Z,2.00
2023-05-11T12:09:31.713Z,3.80
2023-05-11T12:12:00.476Z,3.30
2023-05-11T12:14:28.807Z,3.70
2023-05-11T12:17:01.402Z,3.20
2023-05-11T12:19:29.827Z,3.10
2023-05-11T12:21:57.997Z,4.20
2023-05-11T12:24:26.532Z,2.50
2023-05-11T12:26:57.688Z,3.90
2023-05-11T12:29:26.195Z,3.20
2023-05-11T12:31:54.365Z,4.60
2023-05-11T12:34:23.311Z,5.10
2023-05-11T12:36:53.876Z,6.70
2023-05-11T12:41:51.634Z,3.20
2023-05-11T12:44:21.324Z,3.40
2023-05-11T12:46:50.723Z,3.40
2023-05-11T12:49:26.842Z,3.30
2023-05-11T12:51:55.152Z,3.20
2023-05-11T12:54:26.744Z,2.60
2023-05-11T12:56:55.593Z,2.50
2023-05-11T12:59:30.171Z,2.70
2023-05-11T13:02:06.994Z,4.30
2023-05-11T13:04:35.187Z,3.20
2023-05-11T13:07:03.537Z,4.40
2023-05-11T13:09:31.563Z,3.50
2023-05-11T13:12:17.517Z,3.20
2023-05-11T13:14:50.836Z,3.10
2023-05-11T13:17:33.266Z,3.10
2023-05-11T13:20:26.521Z,2.80
2023-05-11T13:23:09.567Z,6.70
2023-05-11T13:25:46.454Z,4.70
2023-05-11T13:28:15.719Z,4.40
2023-05-11T13:30:44.645Z,8.00
2023-05-11T13:33:12.833Z,4.40
2023-05-11T13:35:42.176Z,4.40
2023-05-11T13:38:12.489Z,3.30
2023-05-11T13:40:40.847Z,5.30
2023-05-11T13:43:09.034Z,2.20
2023-05-11T13:45:37.046Z,2.50
2023-05-11T13:48:05.756Z,4.10
2023-05-11T13:50:33.868Z,2.60
2023-05-11T13:53:02.097Z,4.90
2023-05-11T13:55:30.884Z,2.90
2023-05-11T13:57:59.061Z,1.90
2023-05-11T14:00:27.354Z,3.50
2023-05-11T14:02:56.325Z,5.10
2023-05-11T14:05:24.658Z,3.80
2023-05-11T14:07:52.898Z,2.40
2023-05-11T14:10:21.134Z,2.70
2023-05-11T14:12:49.164Z,3.10
2023-05-11T14:15:17.805Z,4.80
2023-05-11T14:17:46.232Z,4.10
2023-05-11T14:20:14.637Z,4.80
2023-05-11T14:22:42.773Z,2.60
2023-05-11T14:25:10.992Z,4.70
2023-05-11T14:27:39.122Z,3.30
2023-05-11T14:30:08.171Z,2.70
2023-05-11T14:32:36.385Z,4.40
2023-05-11T14:35:04.641Z,5.60
2023-05-11T14:37:32.756Z,5.50
2023-05-11T14:40:01.058Z,4.50
2023-05-11T14:42:29.884Z,3.90
2023-05-11T14:44:58.251Z,1.70
2023-05-11T14:47:26.463Z,3.00
2023-05-11T14:49:54.497Z,2.20
2023-05-11T14:52:22.657Z,2.10
2023-05-11T14:54:51.170Z,2.80
2023-05-11T14:57:19.274Z,2.70
2023-05-11T14:59:59.134Z,3.90
2023-05-11T15:04:57.017Z,2.50
2023-05-11T15:07:25.201Z,3.60
2023-05-11T15:09:53.769Z,2.50
2023-05-11T15:12:22.003Z,3.80
2023-05-11T15:14:50.252Z,8.40
2023-05-11T15:17:18.318Z,2.00
2023-05-11T15:19:46.510Z,3.40
2023-05-11T15:22:14.675Z,3.70
2023-05-11T15:24:42.804Z,4.70
2023-05-11T15:27:11.401Z,3.70
2023-05-11T15:29:39.451Z,2.80
2023-05-11T15:32:10.783Z,3.90
2023-05-11T15:34:47.465Z,3.30
2023-05-11T15:37:26.713Z,3.50
2023-05-11T15:39:54.853Z,3.00
2023-05-11T15:42:23.060Z,4.50
2023-05-11T15:44:51.173Z,3.10
2023-05-11T15:47:19.221Z,3.70
2023-05-11T15:49:47.327Z,2.40
2023-05-11T15:52:15.452Z,3.70
2023-05-11T15:54:43.437Z,3.30
2023-05-11T15:57:11.601Z,3.70
2023-05-11T15:59:39.678Z,3.20
2023-05-11T16:02:07.983Z,2.90
2023-05-11T16:04:36.178Z,3.50
2023-05-11T16:07:04.637Z,3.90
2023-05-11T16:09:32.653Z,1.90
2023-05-11T16:12:01.163Z,5.00
2023-05-11T16:14:29.177Z,3.50
2023-05-11T16:16:57.355Z,3.60
2023-05-11T16:19:25.702Z,3.50
2023-05-11T16:21:54.110Z,2.20
2023-05-11T16:24:22.239Z,5.40
2023-05-11T16:26:50.974Z,3.80
2023-05-11T16:29:19.082Z,5.30
2023-05-11T16:31:47.387Z,5.30
2023-05-11T16:34:15.473Z,3.10
2023-05-11T16:36:43.784Z,7.00
2023-05-11T16:39:12.706Z,3.50
2023-05-11T16:41:40.857Z,3.70
2023-05-11T16:44:08.913Z,5.10
2023-05-11T16:46:37.023Z,2.30
2023-05-11T16:49:05.096Z,2.80
2023-05-11T16:51:34.229Z,2.90
2023-05-11T16:54:02.269Z,2.10
2023-05-11T16:56:30.332Z,3.70
2023-05-11T16:58:58.476Z,2.50
2023-05-11T17:01:26.700Z,2.10
2023-05-11T17:03:55.173Z,5.50
2023-05-11T17:06:24.880Z,4.10
2023-05-11T17:08:53.454Z,2.50
2023-05-11T17:11:21.802Z,2.40
2023-05-11T17:13:51.031Z,2.70
2023-05-11T17:16:19.583Z,6.10
2023-05-11T17:18:47.849Z,7.10
2023-05-11T17:21:16.985Z,4.00
2023-05-11T17:23:45.271Z,2.20
2023-05-11T17:26:13.658Z,2.60
2023-05-11T17:28:41.820Z,2.30
2023-05-11T17:31:12.545Z,3.90
2023-05-11T17:33:41.881Z,3.20
2023-05-11T17:36:10.253Z,3.30
2023-05-11T17:38:38.790Z,4.50
2023-05-11T17:41:07.235Z,4.40
2023-05-11T17:43:37.960Z,3.80
2023-05-11T17:48:34.427Z,3.60
2023-05-11T17:51:02.649Z,2.30
2023-05-11T17:53:31.188Z,3.80
2023-05-11T17:55:59.974Z,4.50
2023-05-11T17:58:28.110Z,2.70
2023-05-11T18:00:56.217Z,3.00
2023-05-11T18:03:24.416Z,4.30
2023-05-11T18:05:52.587Z,3.60
2023-05-11T18:08:20.622Z,4.80
2023-05-11T18:10:48.636Z,8.90
2023-05-11T18:13:17.654Z,3.40
2023-05-11T18:15:46.299Z,3.60
2023-05-11T18:18:14.648Z,5.00
2023-05-11T18:20:45.667Z,5.20
2023-05-11T18:23:14.361Z,3.10
2023-05-11T18:25:42.483Z,6.40
2023-05-11T18:28:10.657Z,2.80
2023-05-11T18:30:39.173Z,3.30
2023-05-11T18:33:07.314Z,4.60
2023-05-11T18:35:36.238Z,4.40
2023-05-11T18:38:05.193Z,2.60
2023-05-11T18:40:33.406Z,4.20
2023-05-11T18:43:01.779Z,3.50
2023-05-11T18:45:30.796Z,2.30
2023-05-11T18:47:58.977Z,4.70
2023-05-11T18:50:28.351Z,3.40
2023-05-11T18:52:57.174Z,3.20
2023-05-11T18:55:29.057Z,4.90
2023-05-11T18:58:00.487Z,4.40
2023-05-11T19:00:29.012Z,3.80
2023-05-11T19:02:57.158Z,5.40
2023-05-11T19:05:25.213Z,4.40
2023-05-11T19:07:53.305Z,3.80
2023-05-11T19:10:24.567Z,5.20
2023-05-11T19:12:52.625Z,4.10
2023-05-11T19:15:20.697Z,5.00
2023-05-11T19:17:48.848Z,5.00
2023-05-11T19:20:17.180Z,5.60
2023-05-11T19:22:45.463Z,3.20
2023-05-11T19:25:13.606Z,3.70
2023-05-11T19:27:41.755Z,4.00
2023-05-11T19:30:10.419Z,3.70
2023-05-11T19:32:38.569Z,4.50
2023-05-11T19:35:07.286Z,3.80
2023-05-11T19:37:35.686Z,4.10
2023-05-11T19:40:37.412Z,3.40
2023-05-11T19:42:52.904Z,4.30
2023-05-11T19:45:21.015Z,5.40
2023-05-11T19:47:49.061Z,4.80
2023-05-11T19:50:20.455Z,3.70
2023-05-11T19:52:49.928Z,4.70
2023-05-11T19:55:18.048Z,7.70
2023-05-11T19:57:47.590Z,7.00
2023-05-11T20:00:18.563Z,5.20
2023-05-11T20:02:47.064Z,4.00
2023-05-11T20:05:15.192Z,8.00
2023-05-11T20:07:43.285Z,4.50
2023-05-11T20:10:11.994Z,6.50
2023-05-11T20:12:40.276Z,4.60
2023-05-11T20:15:08.956Z,5.60
2023-05-11T20:17:37.291Z,4.20
2023-05-11T20:20:06.424Z,4.40
2023-05-11T20:22:34.676Z,4.80
2023-05-11T20:25:11.641Z,3.60
2023-05-11T20:27:44.992Z,5.40
2023-05-11T20:30:13.523Z,5.20
2023-05-11T20:34:06.807Z,5.50
2023-05-11T20:35:31.230Z,4.60
2023-05-11T20:37:59.232Z,6.20
2023-05-11T20:40:27.292Z,5.20
2023-05-11T20:42:55.351Z,4.20
2023-05-11T20:45:23.792Z,3.80
2023-05-11T20:47:51.972Z,5.50
2023-05-11T20:50:20.712Z,6.40
2023-05-11T20:52:49.010Z,5.90
2023-05-11T20:55:17.831Z,6.20
2023-05-11T20:57:46.191Z,5.30
2023-05-11T21:00:16.367Z,4.70
2023-05-11T21:02:46.097Z,4.80
2023-05-11T21:05:14.796Z,4.50
2023-05-11T21:07:42.970Z,4.30
2023-05-11T21:10:12.672Z,3.80
2023-05-11T21:12:40.732Z,5.80
2023-05-11T21:15:09.813Z,4.50
2023-05-11T21:17:37.970Z,5.80
2023-05-11T21:20:06.561Z,5.60
2023-05-11T21:22:35.757Z,5.50
2023-05-11T21:25:04.644Z,4.80
2023-05-11T21:27:32.748Z,5.60
2023-05-11T21:30:00.978Z,5.20
2023-05-11T21:32:29.060Z,5.60
2023-05-11T21:34:57.093Z,6.00
2023-05-11T21:37:25.155Z,5.30
2023-05-11T21:39:53.222Z,3.80
2023-05-11T21:42:21.977Z,4.70
2023-05-11T21:44:50.084Z,5.20
2023-05-11T21:47:18.192Z,7.80
2023-05-11T21:49:46.683Z,4.10
2023-05-11T21:52:14.780Z,4.90
2023-05-11T21:54:42.797Z,6.40
2023-05-11T21:57:10.872Z,5.30
2023-05-11T21:59:39.075Z,4.30
2023-05-11T22:02:07.158Z,5.40
2023-05-11T22:04:35.212Z,5.40
2023-05-11T22:07:03.683Z,5.80
2023-05-11T22:09:31.762Z,5.10
2023-05-11T22:11:59.924Z,7.90
2023-05-11T22:14:28.184Z,5.60
2023-05-11T22:16:56.471Z,5.40
2023-05-11T22:19:24.623Z,6.70
2023-05-11T22:21:52.849Z,4.50
2023-05-11T22:24:21.807Z,6.10
2023-05-11T22:26:50.067Z,4.70
2023-05-11T22:29:18.080Z,6.30
2023-05-11T22:31:46.443Z,4.70
2023-05-11T22:34:15.098Z,5.70
2023-05-11T22:36:43.254Z,6.10
2023-05-11T22:39:11.652Z,6.10
2023-05-11T22:41:39.828Z,4.00
2023-05-11T22:44:08.947Z,6.10
2023-05-11T22:46:37.203Z,4.00
2023-05-11T22:49:05.264Z,5.30
2023-05-11T22:51:33.421Z,6.20
2023-05-11T22:54:01.530Z,10.20
2023-05-11T22:56:30.795Z,4.50
2023-05-11T22:59:02.039Z,5.20
2023-05-11T23:01:30.178Z,6.10
2023-05-11T23:03:58.586Z,7.80
2023-05-11T23:06:26.864Z,4.90
2023-05-11T23:08:54.891Z,4.90
2023-05-11T23:11:31.902Z,4.30
2023-05-11T23:14:00.086Z,4.90
2023-05-11T23:16:28.510Z,5.40
2023-05-11T23:18:57.151Z,6.70
2023-05-11T23:21:25.249Z,8.70
2023-05-11T23:23:53.295Z,6.20
2023-05-11T23:26:21.353Z,8.10
2023-05-11T23:28:49.420Z,6.50
2023-05-11T23:31:17.546Z,8.00
2023-05-11T23:33:45.613Z,9.30
2023-05-11T23:36:14.687Z,7.40
2023-05-11T23:38:42.895Z,6.10
2023-05-11T23:41:10.944Z,7.60
2023-05-11T23:43:39.022Z,6.10
2023-05-11T23:46:07.009Z,6.90
2023-05-11T23:48:35.192Z,5.40
2023-05-11T23:51:03.512Z,5.30
2023-05-11T23:53:31.621Z,7.70
2023-05-11T23:55:59.784Z,6.60
2023-05-11T23:58:27.900Z,8.10
